< Typhoon 201512 2015 Season Typhoon 201514 >
Typhoon 201513 (SOUDELOR)
General InformationTrack Information on Google MapsDetailed Wind InformationForecast History on Google MapsAccess Analytics MapList of All Images || NewsDisaster Info.WeblogTrackbackTyphoon FrontTwiphoonTyphoon Now!Typhoon ImaginationDisaster Info. XMLResourceGoogle EarthGE AnimationAtom FeedGeoJSON
Detalied Best Track (Time Zone = UTC)
Year Month Day Hour Lat. Long. Pressure (hPa) Wind (kt) Class Image Chart
2015 7 29 18 13.3 162.2 1006 0 2 Image Chart
2015 7 30 00 13.7 160.7 1004 0 2 Image Chart
2015 7 30 06 13.6 159.8 1004 0 2 Image Chart
2015 7 30 12 13.6 159.3 1004 0 2 Image Chart
2015 7 30 18 13.5 158.8 1002 0 2 Image Chart
2015 7 31 00 13.4 158.2 1002 0 2 Image Chart
2015 7 31 06 13.2 156.8 1002 0 2 Image Chart
2015 7 31 12 13.4 155.5 1002 0 2 Image Chart
2015 7 31 18 13.4 154.4 1000 0 2 Image Chart
2015 8 1 00 13.6 153.4 1000 0 2 Image Chart
2015 8 1 06 14.0 152.1 998 35 3 Image Chart
2015 8 1 12 14.3 150.7 996 40 3 Image Chart
2015 8 1 18 14.4 149.6 990 50 4 Image Chart
2015 8 2 00 14.6 148.2 980 60 4 Image Chart
2015 8 2 06 14.9 146.8 970 70 5 Image Chart
2015 8 2 12 15.1 146.0 960 80 5 Image Chart
2015 8 2 18 15.6 145.0 945 85 5 Image Chart
2015 8 3 00 16.2 144.0 940 90 5 Image Chart
2015 8 3 06 16.9 143.0 930 95 5 Image Chart
2015 8 3 12 17.4 141.9 910 105 5 Image Chart
2015 8 3 18 17.9 140.7 900 115 5 Image Chart
2015 8 4 00 18.3 139.6 900 115 5 Image Chart
2015 8 4 06 18.6 138.3 900 115 5 Image Chart
2015 8 4 12 18.9 137.2 910 105 5 Image Chart
2015 8 4 18 19.3 136.2 925 100 5 Image Chart
2015 8 5 00 19.5 134.9 930 95 5 Image Chart
2015 8 5 06 19.9 133.7 930 95 5 Image Chart
2015 8 5 12 20.0 132.6 935 90 5 Image Chart
2015 8 5 18 20.1 131.5 935 90 5 Image Chart
2015 8 6 00 20.5 130.2 935 90 5 Image Chart
2015 8 6 06 20.9 129.2 935 90 5 Image Chart
2015 8 6 12 21.2 128.2 935 90 5 Image Chart
2015 8 6 18 21.5 126.8 935 90 5 Image Chart
2015 8 7 00 21.9 125.8 935 90 5 Image Chart
2015 8 7 03 22.1 125.3 935 90 5 Image Chart
2015 8 7 06 22.4 124.8 935 90 5 Image Chart
2015 8 7 09 22.7 124.3 935 90 5 Image Chart
2015 8 7 12 22.9 123.8 935 90 5 Image Chart
2015 8 7 15 23.2 123.3 935 90 5 Image Chart
2015 8 7 18 23.7 122.7 935 90 5 Image Chart
2015 8 7 21 24.1 121.5 950 80 5 Image Chart
2015 8 8 00 23.9 121.0 965 70 5 Image Chart
2015 8 8 03 23.9 120.5 970 70 5 Image Chart
2015 8 8 06 24.1 120.0 970 70 5 Image Chart
2015 8 8 12 24.6 119.2 975 65 5 Image Chart
2015 8 8 18 25.2 118.3 980 55 4 Image Chart
2015 8 9 00 25.8 117.6 992 40 3 Image Chart
2015 8 9 06 26.6 116.9 994 35 3 Image Chart
2015 8 9 12 27.8 116.4 996 0 2 Image Chart
2015 8 9 18 29.1 116.8 998 0 2 Image Chart
2015 8 10 00 30.2 117.5 1000 0 2 Image Chart
2015 8 10 06 31.1 118.2 1000 0 2 Image Chart
2015 8 10 12 31.9 119.6 1000 0 2 Image Chart
2015 8 10 18 32.4 120.5 1000 0 2 Image Chart
2015 8 11 00 32.7 121.4 998 35 3 Image Chart
2015 8 11 06 33.0 122.4 998 35 3 Image Chart
2015 8 11 12 33.0 123.3 1000 0 2 Image Chart
2015 8 11 18 33.0 125.0 1000 0 6 Image Chart
2015 8 12 00 33.3 126.7 1000 0 6 Image Chart
Japan Meteorological Agency Best Track Data | Correction Date : 2015-09-25
< Typhoon 201512 2015 Season Typhoon 201514 >

Help